sensor_id;sensor_type;location;lat;lon;timestamp;P1;durP1;ratioP1;P2;durP2;ratioP2
40871;SDS011;26591;43.264;26.940;2022-12-29T00:02:19;41.58;;;22.23;;
40871;SDS011;26591;43.264;26.940;2022-12-29T00:04:44;43.50;;;20.75;;
40871;SDS011;26591;43.264;26.940;2022-12-29T00:07:10;38.55;;;20.55;;
40871;SDS011;26591;43.264;26.940;2022-12-29T00:09:36;37.45;;;19.30;;
40871;SDS011;26591;43.264;26.940;2022-12-29T00:12:02;38.63;;;20.30;;
40871;SDS011;26591;43.264;26.940;2022-12-29T00:14:29;34.78;;;17.73;;
40871;SDS011;26591;43.264;26.940;2022-12-29T00:17:13;82.13;;;42.88;;
40871;SDS011;26591;43.264;26.940;2022-12-29T00:19:38;54.03;;;30.38;;
40871;SDS011;26591;43.264;26.940;2022-12-29T00:22:24;51.08;;;25.27;;
40871;SDS011;26591;43.264;26.940;2022-12-29T00:25:18;51.55;;;25.80;;
40871;SDS011;26591;43.264;26.940;2022-12-29T00:28:09;40.00;;;23.50;;
40871;SDS011;26591;43.264;26.940;2022-12-29T00:31:02;48.63;;;24.88;;
40871;SDS011;26591;43.264;26.940;2022-12-29T00:33:58;39.22;;;21.58;;
40871;SDS011;26591;43.264;26.940;2022-12-29T00:36:43;34.70;;;17.92;;
40871;SDS011;26591;43.264;26.940;2022-12-29T00:39:16;36.00;;;17.70;;
40871;SDS011;26591;43.264;26.940;2022-12-29T00:42:08;33.72;;;16.23;;
40871;SDS011;26591;43.264;26.940;2022-12-29T00:44:56;28.67;;;14.90;;
40871;SDS011;26591;43.264;26.940;2022-12-29T00:47:22;22.02;;;13.15;;
40871;SDS011;26591;43.264;26.940;2022-12-29T00:49:47;35.95;;;17.48;;
40871;SDS011;26591;43.264;26.940;2022-12-29T00:52:14;42.50;;;20.60;;
40871;SDS011;26591;43.264;26.940;2022-12-29T00:54:40;31.75;;;15.90;;
40871;SDS011;26591;43.264;26.940;2022-12-29T00:57:10;30.10;;;17.03;;
40871;SDS011;26591;43.264;26.940;2022-12-29T00:59:37;49.20;;;26.33;;
40871;SDS011;26591;43.264;26.940;2022-12-29T01:02:04;44.75;;;24.63;;
40871;SDS011;26591;43.264;26.940;2022-12-29T01:04:31;40.88;;;19.90;;
40871;SDS011;26591;43.264;26.940;2022-12-29T01:06:57;35.47;;;19.85;;
40871;SDS011;26591;43.264;26.940;2022-12-29T01:09:23;37.13;;;18.85;;
40871;SDS011;26591;43.264;26.940;2022-12-29T01:12:07;31.55;;;19.08;;
40871;SDS011;26591;43.264;26.940;2022-12-29T01:14:34;26.85;;;16.45;;
40871;SDS011;26591;43.264;26.940;2022-12-29T01:17:00;25.63;;;12.98;;
40871;SDS011;26591;43.264;26.940;2022-12-29T01:19:25;23.95;;;13.80;;
40871;SDS011;26591;43.264;26.940;2022-12-29T01:21:51;24.83;;;14.98;;
40871;SDS011;26591;43.264;26.940;2022-12-29T01:24:17;29.20;;;14.00;;
40871;SDS011;26591;43.264;26.940;2022-12-29T01:26:44;27.67;;;14.13;;
40871;SDS011;26591;43.264;26.940;2022-12-29T01:29:11;23.45;;;13.05;;
40871;SDS011;26591;43.264;26.940;2022-12-29T01:31:37;23.48;;;13.48;;
40871;SDS011;26591;43.264;26.940;2022-12-29T01:34:03;27.23;;;13.60;;
40871;SDS011;26591;43.264;26.940;2022-12-29T01:36:29;23.20;;;14.85;;
40871;SDS011;26591;43.264;26.940;2022-12-29T01:38:55;23.05;;;13.07;;
40871;SDS011;26591;43.264;26.940;2022-12-29T01:41:20;25.77;;;13.35;;
40871;SDS011;26591;43.264;26.940;2022-12-29T01:43:54;19.98;;;11.32;;
40871;SDS011;26591;43.264;26.940;2022-12-29T01:46:39;33.00;;;14.20;;
40871;SDS011;26591;43.264;26.940;2022-12-29T01:49:13;21.98;;;12.90;;
40871;SDS011;26591;43.264;26.940;2022-12-29T01:54:17;21.48;;;11.32;;
40871;SDS011;26591;43.264;26.940;2022-12-29T01:56:51;22.08;;;11.43;;
40871;SDS011;26591;43.264;26.940;2022-12-29T01:59:19;24.23;;;13.73;;
40871;SDS011;26591;43.264;26.940;2022-12-29T02:01:49;31.05;;;15.90;;
40871;SDS011;26591;43.264;26.940;2022-12-29T02:04:15;31.67;;;14.20;;
40871;SDS011;26591;43.264;26.940;2022-12-29T02:06:49;24.95;;;11.75;;
40871;SDS011;26591;43.264;26.940;2022-12-29T02:09:20;20.70;;;11.60;;
40871;SDS011;26591;43.264;26.940;2022-12-29T02:11:47;22.90;;;13.02;;
40871;SDS011;26591;43.264;26.940;2022-12-29T02:14:13;26.27;;;11.88;;
40871;SDS011;26591;43.264;26.940;2022-12-29T02:17:01;27.38;;;13.32;;
40871;SDS011;26591;43.264;26.940;2022-12-29T02:30:06;20.77;;;9.48;;
40871;SDS011;26591;43.264;26.940;2022-12-29T02:35:39;19.40;;;9.73;;
40871;SDS011;26591;43.264;26.940;2022-12-29T02:38:20;20.70;;;10.48;;
40871;SDS011;26591;43.264;26.940;2022-12-29T02:40:48;19.40;;;9.25;;
40871;SDS011;26591;43.264;26.940;2022-12-29T02:45:53;17.05;;;9.45;;
40871;SDS011;26591;43.264;26.940;2022-12-29T02:48:32;16.80;;;7.72;;
40871;SDS011;26591;43.264;26.940;2022-12-29T02:51:33;14.27;;;7.38;;
40871;SDS011;26591;43.264;26.940;2022-12-29T02:54:05;16.33;;;7.97;;
40871;SDS011;26591;43.264;26.940;2022-12-29T02:56:50;23.10;;;8.95;;
40871;SDS011;26591;43.264;26.940;2022-12-29T02:59:15;14.07;;;7.93;;
40871;SDS011;26591;43.264;26.940;2022-12-29T03:05:11;10.85;;;6.50;;
40871;SDS011;26591;43.264;26.940;2022-12-29T03:11:12;10.38;;;6.38;;
40871;SDS011;26591;43.264;26.940;2022-12-29T03:14:13;11.70;;;7.10;;
40871;SDS011;26591;43.264;26.940;2022-12-29T03:17:11;11.77;;;6.82;;
40871;SDS011;26591;43.264;26.940;2022-12-29T03:19:49;15.80;;;7.97;;
40871;SDS011;26591;43.264;26.940;2022-12-29T03:22:19;14.73;;;6.82;;
40871;SDS011;26591;43.264;26.940;2022-12-29T03:24:53;11.93;;;7.22;;
40871;SDS011;26591;43.264;26.940;2022-12-29T03:27:24;12.77;;;7.38;;
40871;SDS011;26591;43.264;26.940;2022-12-29T03:32:42;14.02;;;7.72;;
40871;SDS011;26591;43.264;26.940;2022-12-29T03:35:13;15.10;;;7.47;;
40871;SDS011;26591;43.264;26.940;2022-12-29T03:37:49;16.30;;;7.18;;
40871;SDS011;26591;43.264;26.940;2022-12-29T03:40:21;15.90;;;6.15;;
40871;SDS011;26591;43.264;26.940;2022-12-29T03:42:49;13.65;;;5.85;;
40871;SDS011;26591;43.264;26.940;2022-12-29T03:45:15;12.35;;;6.88;;
40871;SDS011;26591;43.264;26.940;2022-12-29T03:47:41;13.95;;;6.93;;
40871;SDS011;26591;43.264;26.940;2022-12-29T03:50:07;20.10;;;7.97;;
40871;SDS011;26591;43.264;26.940;2022-12-29T03:52:33;13.23;;;6.22;;
40871;SDS011;26591;43.264;26.940;2022-12-29T03:54:59;12.85;;;6.38;;
40871;SDS011;26591;43.264;26.940;2022-12-29T03:57:25;9.88;;;6.35;;
40871;SDS011;26591;43.264;26.940;2022-12-29T03:59:50;13.20;;;6.63;;
40871;SDS011;26591;43.264;26.940;2022-12-29T04:02:16;13.32;;;6.53;;
40871;SDS011;26591;43.264;26.940;2022-12-29T04:04:41;11.00;;;6.10;;
40871;SDS011;26591;43.264;26.940;2022-12-29T04:07:07;16.85;;;5.78;;
40871;SDS011;26591;43.264;26.940;2022-12-29T04:09:32;12.35;;;6.78;;
40871;SDS011;26591;43.264;26.940;2022-12-29T04:11:58;17.20;;;7.72;;
40871;SDS011;26591;43.264;26.940;2022-12-29T04:14:23;14.25;;;7.55;;
40871;SDS011;26591;43.264;26.940;2022-12-29T04:16:49;13.60;;;6.85;;
40871;SDS011;26591;43.264;26.940;2022-12-29T04:19:14;15.60;;;7.88;;
40871;SDS011;26591;43.264;26.940;2022-12-29T04:21:40;15.25;;;7.00;;
40871;SDS011;26591;43.264;26.940;2022-12-29T04:24:05;20.92;;;9.00;;
40871;SDS011;26591;43.264;26.940;2022-12-29T04:26:32;19.25;;;9.35;;
40871;SDS011;26591;43.264;26.940;2022-12-29T04:28:57;17.88;;;10.50;;
40871;SDS011;26591;43.264;26.940;2022-12-29T04:31:23;21.98;;;11.98;;
40871;SDS011;26591;43.264;26.940;2022-12-29T04:33:49;13.95;;;7.47;;
40871;SDS011;26591;43.264;26.940;2022-12-29T04:36:14;13.57;;;7.53;;
40871;SDS011;26591;43.264;26.940;2022-12-29T04:38:40;16.60;;;9.38;;
40871;SDS011;26591;43.264;26.940;2022-12-29T04:41:06;17.30;;;8.57;;
40871;SDS011;26591;43.264;26.940;2022-12-29T04:43:31;23.48;;;10.93;;
40871;SDS011;26591;43.264;26.940;2022-12-29T04:45:57;39.80;;;15.55;;
40871;SDS011;26591;43.264;26.940;2022-12-29T04:48:22;23.10;;;10.88;;
40871;SDS011;26591;43.264;26.940;2022-12-29T04:50:48;23.88;;;10.98;;
40871;SDS011;26591;43.264;26.940;2022-12-29T04:53:15;25.63;;;11.32;;
40871;SDS011;26591;43.264;26.940;2022-12-29T04:55:42;24.90;;;10.93;;
40871;SDS011;26591;43.264;26.940;2022-12-29T04:58:08;21.08;;;11.10;;
40871;SDS011;26591;43.264;26.940;2022-12-29T05:00:33;27.80;;;13.85;;
40871;SDS011;26591;43.264;26.940;2022-12-29T05:02:59;34.35;;;14.75;;
40871;SDS011;26591;43.264;26.940;2022-12-29T05:05:25;20.35;;;10.00;;
40871;SDS011;26591;43.264;26.940;2022-12-29T05:07:50;18.55;;;10.15;;
40871;SDS011;26591;43.264;26.940;2022-12-29T05:10:16;18.83;;;9.77;;
40871;SDS011;26591;43.264;26.940;2022-12-29T05:12:42;23.10;;;11.73;;
40871;SDS011;26591;43.264;26.940;2022-12-29T05:15:08;26.10;;;13.70;;
40871;SDS011;26591;43.264;26.940;2022-12-29T05:17:35;23.42;;;12.90;;
40871;SDS011;26591;43.264;26.940;2022-12-29T05:20:01;30.63;;;15.18;;
40871;SDS011;26591;43.264;26.940;2022-12-29T05:22:26;30.45;;;14.80;;
40871;SDS011;26591;43.264;26.940;2022-12-29T05:24:52;22.30;;;12.60;;
40871;SDS011;26591;43.264;26.940;2022-12-29T05:27:18;24.45;;;13.55;;
40871;SDS011;26591;43.264;26.940;2022-12-29T05:29:43;22.00;;;12.10;;
40871;SDS011;26591;43.264;26.940;2022-12-29T05:32:09;21.45;;;12.68;;
40871;SDS011;26591;43.264;26.940;2022-12-29T05:34:34;22.52;;;11.80;;
40871;SDS011;26591;43.264;26.940;2022-12-29T05:37:00;37.33;;;22.73;;
40871;SDS011;26591;43.264;26.940;2022-12-29T05:39:27;34.22;;;19.27;;
40871;SDS011;26591;43.264;26.940;2022-12-29T05:41:53;26.23;;;12.13;;
40871;SDS011;26591;43.264;26.940;2022-12-29T05:44:19;16.92;;;10.88;;
40871;SDS011;26591;43.264;26.940;2022-12-29T05:46:45;21.52;;;11.68;;
40871;SDS011;26591;43.264;26.940;2022-12-29T05:49:11;21.38;;;14.18;;
40871;SDS011;26591;43.264;26.940;2022-12-29T05:51:36;27.35;;;17.17;;
40871;SDS011;26591;43.264;26.940;2022-12-29T05:54:02;22.73;;;14.55;;
40871;SDS011;26591;43.264;26.940;2022-12-29T05:56:30;24.27;;;11.73;;
40871;SDS011;26591;43.264;26.940;2022-12-29T05:58:56;21.38;;;11.25;;
40871;SDS011;26591;43.264;26.940;2022-12-29T06:01:22;28.15;;;12.45;;
40871;SDS011;26591;43.264;26.940;2022-12-29T06:03:47;28.88;;;13.13;;
40871;SDS011;26591;43.264;26.940;2022-12-29T06:06:13;29.77;;;16.77;;
40871;SDS011;26591;43.264;26.940;2022-12-29T06:08:39;35.72;;;19.55;;
40871;SDS011;26591;43.264;26.940;2022-12-29T06:11:05;30.05;;;19.05;;
40871;SDS011;26591;43.264;26.940;2022-12-29T06:13:31;32.75;;;19.55;;
40871;SDS011;26591;43.264;26.940;2022-12-29T06:15:56;27.48;;;15.52;;
40871;SDS011;26591;43.264;26.940;2022-12-29T06:18:22;23.67;;;14.95;;
40871;SDS011;26591;43.264;26.940;2022-12-29T06:20:47;37.45;;;20.85;;
40871;SDS011;26591;43.264;26.940;2022-12-29T06:23:13;51.15;;;28.35;;
40871;SDS011;26591;43.264;26.940;2022-12-29T06:25:39;29.80;;;17.05;;
40871;SDS011;26591;43.264;26.940;2022-12-29T06:28:05;23.90;;;14.45;;
40871;SDS011;26591;43.264;26.940;2022-12-29T06:30:30;23.60;;;12.65;;
40871;SDS011;26591;43.264;26.940;2022-12-29T06:32:57;20.10;;;12.57;;
40871;SDS011;26591;43.264;26.940;2022-12-29T06:35:23;23.52;;;12.07;;
40871;SDS011;26591;43.264;26.940;2022-12-29T06:37:49;42.05;;;21.92;;
40871;SDS011;26591;43.264;26.940;2022-12-29T06:40:15;33.00;;;20.88;;
40871;SDS011;26591;43.264;26.940;2022-12-29T06:42:40;24.73;;;16.23;;
40871;SDS011;26591;43.264;26.940;2022-12-29T06:45:06;33.25;;;15.18;;
40871;SDS011;26591;43.264;26.940;2022-12-29T06:47:32;30.13;;;13.88;;
40871;SDS011;26591;43.264;26.940;2022-12-29T06:49:59;25.55;;;10.77;;
40871;SDS011;26591;43.264;26.940;2022-12-29T06:52:24;24.00;;;14.02;;
40871;SDS011;26591;43.264;26.940;2022-12-29T06:54:50;50.67;;;22.85;;
40871;SDS011;26591;43.264;26.940;2022-12-29T06:57:16;56.53;;;26.17;;
40871;SDS011;26591;43.264;26.940;2022-12-29T06:59:41;88.00;;;37.65;;
40871;SDS011;26591;43.264;26.940;2022-12-29T07:02:08;57.78;;;29.23;;
40871;SDS011;26591;43.264;26.940;2022-12-29T07:04:36;33.05;;;18.23;;
40871;SDS011;26591;43.264;26.940;2022-12-29T07:07:02;27.30;;;16.83;;
40871;SDS011;26591;43.264;26.940;2022-12-29T07:09:28;43.15;;;24.15;;
40871;SDS011;26591;43.264;26.940;2022-12-29T07:11:54;31.92;;;18.65;;
40871;SDS011;26591;43.264;26.940;2022-12-29T07:14:19;47.55;;;22.85;;
40871;SDS011;26591;43.264;26.940;2022-12-29T07:16:45;53.67;;;27.45;;
40871;SDS011;26591;43.264;26.940;2022-12-29T07:19:15;50.55;;;26.02;;
40871;SDS011;26591;43.264;26.940;2022-12-29T07:21:41;51.20;;;23.55;;
40871;SDS011;26591;43.264;26.940;2022-12-29T07:24:07;35.67;;;21.17;;
40871;SDS011;26591;43.264;26.940;2022-12-29T07:26:32;30.73;;;19.75;;
40871;SDS011;26591;43.264;26.940;2022-12-29T07:28:59;29.73;;;17.60;;
40871;SDS011;26591;43.264;26.940;2022-12-29T07:31:26;35.50;;;16.73;;
40871;SDS011;26591;43.264;26.940;2022-12-29T07:33:51;31.58;;;18.20;;
40871;SDS011;26591;43.264;26.940;2022-12-29T07:36:17;24.17;;;14.48;;
40871;SDS011;26591;43.264;26.940;2022-12-29T07:38:42;22.73;;;13.52;;
40871;SDS011;26591;43.264;26.940;2022-12-29T07:41:08;24.58;;;14.82;;
40871;SDS011;26591;43.264;26.940;2022-12-29T07:43:34;19.65;;;12.63;;
40871;SDS011;26591;43.264;26.940;2022-12-29T07:46:00;20.70;;;9.68;;
40871;SDS011;26591;43.264;26.940;2022-12-29T07:48:25;14.35;;;8.05;;
40871;SDS011;26591;43.264;26.940;2022-12-29T07:50:51;12.80;;;7.47;;
40871;SDS011;26591;43.264;26.940;2022-12-29T07:53:18;13.40;;;6.97;;
40871;SDS011;26591;43.264;26.940;2022-12-29T07:55:44;14.23;;;7.53;;
40871;SDS011;26591;43.264;26.940;2022-12-29T07:58:09;11.20;;;6.60;;
40871;SDS011;26591;43.264;26.940;2022-12-29T08:00:35;13.63;;;7.20;;
40871;SDS011;26591;43.264;26.940;2022-12-29T08:03:01;18.70;;;7.75;;
40871;SDS011;26591;43.264;26.940;2022-12-29T08:05:26;15.98;;;7.82;;
40871;SDS011;26591;43.264;26.940;2022-12-29T08:07:52;22.98;;;10.85;;
40871;SDS011;26591;43.264;26.940;2022-12-29T08:10:17;22.52;;;10.20;;
40871;SDS011;26591;43.264;26.940;2022-12-29T08:12:43;19.10;;;9.55;;
40871;SDS011;26591;43.264;26.940;2022-12-29T08:15:10;21.83;;;10.32;;
40871;SDS011;26591;43.264;26.940;2022-12-29T08:17:37;19.73;;;11.60;;
40871;SDS011;26591;43.264;26.940;2022-12-29T08:20:03;21.45;;;12.18;;
40871;SDS011;26591;43.264;26.940;2022-12-29T08:22:29;32.05;;;11.02;;
40871;SDS011;26591;43.264;26.940;2022-12-29T08:24:55;23.25;;;11.02;;
40871;SDS011;26591;43.264;26.940;2022-12-29T08:27:20;22.23;;;10.88;;
40871;SDS011;26591;43.264;26.940;2022-12-29T08:29:46;43.15;;;12.73;;
40871;SDS011;26591;43.264;26.940;2022-12-29T08:32:12;19.70;;;10.82;;
40871;SDS011;26591;43.264;26.940;2022-12-29T08:34:38;22.95;;;10.55;;
40871;SDS011;26591;43.264;26.940;2022-12-29T08:37:03;22.17;;;10.20;;
40871;SDS011;26591;43.264;26.940;2022-12-29T08:39:29;21.67;;;10.57;;
40871;SDS011;26591;43.264;26.940;2022-12-29T08:41:55;15.65;;;10.45;;
40871;SDS011;26591;43.264;26.940;2022-12-29T08:44:20;32.25;;;11.35;;
40871;SDS011;26591;43.264;26.940;2022-12-29T08:46:46;25.35;;;12.85;;
40871;SDS011;26591;43.264;26.940;2022-12-29T08:49:12;29.88;;;13.23;;
40871;SDS011;26591;43.264;26.940;2022-12-29T08:51:38;29.30;;;15.48;;
40871;SDS011;26591;43.264;26.940;2022-12-29T08:54:03;35.15;;;14.52;;
40871;SDS011;26591;43.264;26.940;2022-12-29T08:56:29;31.70;;;14.02;;
40871;SDS011;26591;43.264;26.940;2022-12-29T08:58:54;29.63;;;13.52;;
40871;SDS011;26591;43.264;26.940;2022-12-29T09:01:20;21.40;;;13.10;;
40871;SDS011;26591;43.264;26.940;2022-12-29T09:03:46;22.02;;;10.63;;
40871;SDS011;26591;43.264;26.940;2022-12-29T09:06:12;25.23;;;12.55;;
40871;SDS011;26591;43.264;26.940;2022-12-29T09:08:38;32.67;;;9.98;;
40871;SDS011;26591;43.264;26.940;2022-12-29T09:11:11;28.63;;;11.70;;
40871;SDS011;26591;43.264;26.940;2022-12-29T09:13:40;22.60;;;11.88;;
40871;SDS011;26591;43.264;26.940;2022-12-29T09:16:06;21.50;;;11.82;;
40871;SDS011;26591;43.264;26.940;2022-12-29T09:18:32;21.02;;;11.73;;
40871;SDS011;26591;43.264;26.940;2022-12-29T09:20:59;31.75;;;10.48;;
40871;SDS011;26591;43.264;26.940;2022-12-29T09:23:26;24.27;;;11.13;;
40871;SDS011;26591;43.264;26.940;2022-12-29T09:25:52;30.48;;;11.52;;
40871;SDS011;26591;43.264;26.940;2022-12-29T09:28:18;29.88;;;13.63;;
40871;SDS011;26591;43.264;26.940;2022-12-29T09:30:43;20.50;;;12.13;;
40871;SDS011;26591;43.264;26.940;2022-12-29T09:33:09;31.67;;;12.77;;
40871;SDS011;26591;43.264;26.940;2022-12-29T09:35:34;47.33;;;13.93;;
40871;SDS011;26591;43.264;26.940;2022-12-29T09:38:00;24.25;;;12.80;;
40871;SDS011;26591;43.264;26.940;2022-12-29T09:40:27;26.35;;;12.65;;
40871;SDS011;26591;43.264;26.940;2022-12-29T09:43:02;35.08;;;15.25;;
40871;SDS011;26591;43.264;26.940;2022-12-29T09:45:33;24.08;;;13.90;;
40871;SDS011;26591;43.264;26.940;2022-12-29T09:48:11;28.98;;;14.57;;
40871;SDS011;26591;43.264;26.940;2022-12-29T09:50:43;43.15;;;18.58;;
40871;SDS011;26591;43.264;26.940;2022-12-29T09:53:22;23.45;;;12.23;;
40871;SDS011;26591;43.264;26.940;2022-12-29T09:55:54;28.30;;;11.10;;
40871;SDS011;26591;43.264;26.940;2022-12-29T09:58:36;26.73;;;11.20;;
40871;SDS011;26591;43.264;26.940;2022-12-29T10:01:07;29.17;;;11.73;;
40871;SDS011;26591;43.264;26.940;2022-12-29T10:03:47;34.67;;;13.18;;
40871;SDS011;26591;43.264;26.940;2022-12-29T10:06:20;20.60;;;11.07;;
40871;SDS011;26591;43.264;26.940;2022-12-29T10:21:47;17.67;;;10.35;;
40871;SDS011;26591;43.264;26.940;2022-12-29T10:24:16;25.95;;;11.75;;
40871;SDS011;26591;43.264;26.940;2022-12-29T10:26:44;27.70;;;11.57;;
40871;SDS011;26591;43.264;26.940;2022-12-29T10:29:18;26.08;;;12.18;;
40871;SDS011;26591;43.264;26.940;2022-12-29T10:34:22;16.00;;;9.38;;
40871;SDS011;26591;43.264;26.940;2022-12-29T10:37:05;18.42;;;9.88;;
40871;SDS011;26591;43.264;26.940;2022-12-29T10:39:43;19.38;;;10.73;;
40871;SDS011;26591;43.264;26.940;2022-12-29T10:45:14;19.65;;;10.50;;
40871;SDS011;26591;43.264;26.940;2022-12-29T10:47:47;21.60;;;9.70;;
40871;SDS011;26591;43.264;26.940;2022-12-29T10:50:21;25.25;;;10.70;;
40871;SDS011;26591;43.264;26.940;2022-12-29T10:52:48;21.10;;;9.02;;
40871;SDS011;26591;43.264;26.940;2022-12-29T10:55:19;21.80;;;9.70;;
40871;SDS011;26591;43.264;26.940;2022-12-29T10:57:53;12.98;;;8.25;;
40871;SDS011;26591;43.264;26.940;2022-12-29T11:00:22;15.27;;;8.52;;
40871;SDS011;26591;43.264;26.940;2022-12-29T11:08:10;13.43;;;7.47;;
40871;SDS011;26591;43.264;26.940;2022-12-29T11:10:42;12.18;;;7.70;;
40871;SDS011;26591;43.264;26.940;2022-12-29T11:13:18;14.10;;;8.82;;
40871;SDS011;26591;43.264;26.940;2022-12-29T11:15:50;24.08;;;12.90;;
40871;SDS011;26591;43.264;26.940;2022-12-29T11:18:18;18.92;;;10.10;;
40871;SDS011;26591;43.264;26.940;2022-12-29T11:20:46;19.95;;;8.90;;
40871;SDS011;26591;43.264;26.940;2022-12-29T11:28:39;17.42;;;9.65;;
40871;SDS011;26591;43.264;26.940;2022-12-29T11:31:07;15.48;;;8.23;;
40871;SDS011;26591;43.264;26.940;2022-12-29T11:33:34;10.98;;;6.57;;
40871;SDS011;26591;43.264;26.940;2022-12-29T11:36:10;13.45;;;7.15;;
40871;SDS011;26591;43.264;26.940;2022-12-29T11:38:40;13.75;;;7.13;;
40871;SDS011;26591;43.264;26.940;2022-12-29T11:41:11;14.85;;;7.20;;
40871;SDS011;26591;43.264;26.940;2022-12-29T11:43:39;12.38;;;5.78;;
40871;SDS011;26591;43.264;26.940;2022-12-29T11:46:13;15.33;;;7.33;;
40871;SDS011;26591;43.264;26.940;2022-12-29T11:48:41;17.00;;;8.02;;
40871;SDS011;26591;43.264;26.940;2022-12-29T11:51:08;13.00;;;6.50;;
40871;SDS011;26591;43.264;26.940;2022-12-29T11:53:44;12.93;;;5.03;;
40871;SDS011;26591;43.264;26.940;2022-12-29T11:56:13;14.20;;;4.88;;
40871;SDS011;26591;43.264;26.940;2022-12-29T11:58:47;15.32;;;5.95;;
40871;SDS011;26591;43.264;26.940;2022-12-29T12:09:36;31.55;;;13.18;;
40871;SDS011;26591;43.264;26.940;2022-12-29T12:12:18;14.45;;;7.75;;
40871;SDS011;26591;43.264;26.940;2022-12-29T12:14:51;64.05;;;27.73;;
40871;SDS011;26591;43.264;26.940;2022-12-29T12:20:49;12.23;;;7.63;;
40871;SDS011;26591;43.264;26.940;2022-12-29T12:29:00;52.63;;;14.52;;
40871;SDS011;26591;43.264;26.940;2022-12-29T12:34:10;26.48;;;12.88;;
40871;SDS011;26591;43.264;26.940;2022-12-29T12:36:47;31.73;;;12.90;;
40871;SDS011;26591;43.264;26.940;2022-12-29T12:43:13;19.67;;;7.35;;
40871;SDS011;26591;43.264;26.940;2022-12-29T12:46:10;16.08;;;9.00;;
40871;SDS011;26591;43.264;26.940;2022-12-29T13:07:59;20.52;;;10.07;;
40871;SDS011;26591;43.264;26.940;2022-12-29T13:10:39;19.42;;;9.68;;
40871;SDS011;26591;43.264;26.940;2022-12-29T13:18:52;17.98;;;9.35;;
40871;SDS011;26591;43.264;26.940;2022-12-29T13:27:41;15.50;;;7.13;;
40871;SDS011;26591;43.264;26.940;2022-12-29T13:30:09;27.52;;;9.55;;
40871;SDS011;26591;43.264;26.940;2022-12-29T13:35:42;19.30;;;9.07;;
40871;SDS011;26591;43.264;26.940;2022-12-29T13:38:26;19.50;;;8.02;;
40871;SDS011;26591;43.264;26.940;2022-12-29T13:40:59;25.98;;;8.93;;
40871;SDS011;26591;43.264;26.940;2022-12-29T13:43:28;28.48;;;10.70;;
40871;SDS011;26591;43.264;26.940;2022-12-29T13:46:04;44.88;;;30.08;;
40871;SDS011;26591;43.264;26.940;2022-12-29T13:48:37;24.35;;;11.60;;
40871;SDS011;26591;43.264;26.940;2022-12-29T13:51:09;14.50;;;9.60;;
40871;SDS011;26591;43.264;26.940;2022-12-29T13:56:24;30.85;;;15.77;;
40871;SDS011;26591;43.264;26.940;2022-12-29T13:59:09;33.70;;;16.25;;
40871;SDS011;26591;43.264;26.940;2022-12-29T14:02:25;40.28;;;18.60;;
40871;SDS011;26591;43.264;26.940;2022-12-29T14:05:26;55.85;;;28.85;;
40871;SDS011;26591;43.264;26.940;2022-12-29T14:08:00;64.63;;;37.72;;
40871;SDS011;26591;43.264;26.940;2022-12-29T14:10:38;60.22;;;35.20;;
40871;SDS011;26591;43.264;26.940;2022-12-29T14:15:38;71.25;;;38.78;;
40871;SDS011;26591;43.264;26.940;2022-12-29T14:18:12;61.45;;;32.40;;
40871;SDS011;26591;43.264;26.940;2022-12-29T14:20:46;76.90;;;36.78;;
40871;SDS011;26591;43.264;26.940;2022-12-29T14:26:00;52.97;;;31.30;;
40871;SDS011;26591;43.264;26.940;2022-12-29T14:28:44;71.93;;;37.88;;
40871;SDS011;26591;43.264;26.940;2022-12-29T14:33:40;94.60;;;57.60;;
40871;SDS011;26591;43.264;26.940;2022-12-29T14:36:52;128.00;;;73.75;;
40871;SDS011;26591;43.264;26.940;2022-12-29T14:38:59;149.68;;;97.80;;
40871;SDS011;26591;43.264;26.940;2022-12-29T14:41:35;96.63;;;69.13;;
40871;SDS011;26591;43.264;26.940;2022-12-29T14:47:01;70.22;;;47.88;;
40871;SDS011;26591;43.264;26.940;2022-12-29T14:52:16;108.30;;;59.80;;
40871;SDS011;26591;43.264;26.940;2022-12-29T14:57:22;103.35;;;66.88;;
40871;SDS011;26591;43.264;26.940;2022-12-29T14:59:56;84.32;;;53.72;;
40871;SDS011;26591;43.264;26.940;2022-12-29T15:02:28;100.65;;;62.25;;
40871;SDS011;26591;43.264;26.940;2022-12-29T15:05:00;69.85;;;43.63;;
40871;SDS011;26591;43.264;26.940;2022-12-29T15:07:27;56.92;;;38.10;;
40871;SDS011;26591;43.264;26.940;2022-12-29T15:09:57;60.45;;;36.65;;
40871;SDS011;26591;43.264;26.940;2022-12-29T15:12:42;70.47;;;41.45;;
40871;SDS011;26591;43.264;26.940;2022-12-29T15:15:20;55.63;;;34.15;;
40871;SDS011;26591;43.264;26.940;2022-12-29T15:17:50;74.95;;;41.22;;
40871;SDS011;26591;43.264;26.940;2022-12-29T15:25:27;110.43;;;64.30;;
40871;SDS011;26591;43.264;26.940;2022-12-29T15:27:57;96.30;;;61.05;;
40871;SDS011;26591;43.264;26.940;2022-12-29T15:30:31;78.10;;;46.75;;
40871;SDS011;26591;43.264;26.940;2022-12-29T15:33:00;262.13;;;117.13;;
40871;SDS011;26591;43.264;26.940;2022-12-29T15:35:30;269.45;;;109.47;;
40871;SDS011;26591;43.264;26.940;2022-12-29T15:37:58;279.85;;;121.70;;
40871;SDS011;26591;43.264;26.940;2022-12-29T15:45:34;459.30;;;150.65;;
40871;SDS011;26591;43.264;26.940;2022-12-29T15:48:00;307.15;;;111.38;;
40871;SDS011;26591;43.264;26.940;2022-12-29T15:50:27;160.52;;;87.72;;
40871;SDS011;26591;43.264;26.940;2022-12-29T15:52:57;137.45;;;77.30;;
40871;SDS011;26591;43.264;26.940;2022-12-29T15:55:32;94.63;;;58.00;;
40871;SDS011;26591;43.264;26.940;2022-12-29T15:58:03;105.50;;;60.72;;
40871;SDS011;26591;43.264;26.940;2022-12-29T16:00:34;149.30;;;69.80;;
40871;SDS011;26591;43.264;26.940;2022-12-29T16:03:02;112.95;;;62.05;;
40871;SDS011;26591;43.264;26.940;2022-12-29T16:05:32;97.75;;;57.03;;
40871;SDS011;26591;43.264;26.940;2022-12-29T16:08:01;74.65;;;48.63;;
40871;SDS011;26591;43.264;26.940;2022-12-29T16:10:37;93.40;;;49.75;;
40871;SDS011;26591;43.264;26.940;2022-12-29T16:13:12;106.68;;;57.30;;
40871;SDS011;26591;43.264;26.940;2022-12-29T16:15:56;81.85;;;43.17;;
40871;SDS011;26591;43.264;26.940;2022-12-29T16:18:29;84.18;;;44.90;;
40871;SDS011;26591;43.264;26.940;2022-12-29T16:21:16;91.68;;;46.85;;
40871;SDS011;26591;43.264;26.940;2022-12-29T16:23:50;71.07;;;41.30;;
40871;SDS011;26591;43.264;26.940;2022-12-29T16:26:19;91.00;;;50.15;;
40871;SDS011;26591;43.264;26.940;2022-12-29T16:28:50;91.80;;;54.95;;
40871;SDS011;26591;43.264;26.940;2022-12-29T16:31:23;100.15;;;61.22;;
40871;SDS011;26591;43.264;26.940;2022-12-29T16:33:57;86.47;;;47.50;;
40871;SDS011;26591;43.264;26.940;2022-12-29T16:36:38;102.38;;;62.72;;
40871;SDS011;26591;43.264;26.940;2022-12-29T16:41:57;79.22;;;45.60;;
40871;SDS011;26591;43.264;26.940;2022-12-29T16:44:27;63.30;;;38.20;;
40871;SDS011;26591;43.264;26.940;2022-12-29T16:49:51;83.60;;;50.20;;
40871;SDS011;26591;43.264;26.940;2022-12-29T16:52:23;85.07;;;52.75;;
40871;SDS011;26591;43.264;26.940;2022-12-29T16:54:58;81.10;;;50.17;;
40871;SDS011;26591;43.264;26.940;2022-12-29T16:57:51;68.75;;;44.00;;
40871;SDS011;26591;43.264;26.940;2022-12-29T17:00:25;62.25;;;40.33;;